Flight Track Log - Related Links

Times and Time Zones

All times are in EDT time to prevent confusion due to time zone crossing. See the N133VU flight status page for this flight to view local times or setup timezone preferences in your user account.

Time Position Orientation Groundspeed Altitude Reporting Facility
EDT Latitude Longitude Course Direction KTS MPH feet Rate Location/Type
Sat 12:36:00 AM 17.8427 53.9093 328° Northwest  Level Estimated
Sat 12:37:00 AM 17.8722 53.8901 328° Northwest  Level Estimated
Sat 12:38:00 AM 17.9016 53.8708 328° Northwest  Level Estimated
Sat 12:39:00 AM 17.9310 53.8516 328° Northwest  Level Estimated
Sat 12:40:00 AM 17.9605 53.8323 328° Northwest  Level Estimated
Sat 12:41:00 AM 17.9899 53.8131 328° Northwest  Level Estimated
Sat 12:42:00 AM 18.0194 53.7938 328° Northwest  Level Estimated
Sat 12:43:00 AM 18.0483 53.7748 328° Northwest  Level Estimated
Sat 12:44:00 AM 18.0773 53.7558 328° Northwest  Level Estimated
Sat 12:45:00 AM 18.1063 53.7369 328° Northwest  Level Estimated
Sat 12:46:00 AM 18.1352 53.7179 328° Northwest  Level Estimated
Sat 12:47:00 AM 18.1642 53.6989 328° Northwest  Level Estimated
Sat 12:48:00 AM 18.1932 53.6799 328° Northwest  Level Estimated
Sat 12:49:00 AM 18.2221 53.6608 328° Northwest  Level Estimated
Sat 12:50:00 AM 18.2511 53.6418 328° Northwest  Level Estimated
Sat 12:51:00 AM 18.2801 53.6228 328° Northwest  Level Estimated
Sat 12:52:00 AM 18.3090 53.6038 328° Northwest  Level Estimated
Sat 12:53:00 AM 18.3380 53.5847 328° Northwest  Level Estimated
Sat 12:54:00 AM 18.3669 53.5657 328° Northwest  Level Estimated
Sat 12:55:00 AM 18.3959 53.5466 328° Northwest  Level Estimated
Sat 12:56:00 AM 18.4248 53.5276 328° Northwest  Level Estimated
Sat 12:57:00 AM 18.4538 53.5085 328° Northwest  Level Estimated
Sat 12:58:00 AM 18.4827 53.4894 328° Northwest  Level Estimated
Sat 12:59:00 AM 18.5117 53.4704 328° Northwest  Level Estimated
Sat 01:00:00 AM 18.5406 53.4513 328° Northwest  Level Estimated
Sat 01:01:00 AM 18.5695 53.4322 328° Northwest  Level Estimated
Sat 01:02:00 AM 18.5985 53.4131 328° Northwest  Level Estimated
Sat 01:03:00 AM 18.6274 53.3940 328° Northwest  Level Estimated
Sat 01:04:00 AM 18.6564 53.3749 328° Northwest  Level Estimated
Sat 01:05:00 AM 18.6853 53.3558 328° Northwest  Level Estimated
Sat 01:06:00 AM 18.7142 53.3366 328° Northwest  Level Estimated
Sat 01:07:00 AM 18.7432 53.3175 328° Northwest  Level Estimated
Sat 01:08:00 AM 18.7721 53.2984 328° Northwest  Level Estimated
Sat 01:09:00 AM 18.8010 53.2792 328° Northwest  Level Estimated
Sat 01:10:00 AM 18.8299 53.2601 328° Northwest  Level Estimated
Sat 01:11:00 AM 18.8589 53.2409 328° Northwest  Level Estimated
Sat 01:12:00 AM 18.8878 53.2218 328° Northwest  Level Estimated
Sat 01:13:00 AM 18.9167 53.2026 328° Northwest  Level Estimated
Sat 01:14:00 AM 18.9456 53.1834 328° Northwest  Level Estimated
Sat 01:15:00 AM 18.9745 53.1642 328° Northwest  Level Estimated
Sat 01:16:00 AM 19.0034 53.1450 328° Northwest  Level Estimated
Sat 01:17:00 AM 19.0323 53.1258 328° Northwest  Level Estimated
Sat 01:18:00 AM 19.0613 53.1066 328° Northwest  Level Estimated
Sat 01:19:00 AM 19.0902 53.0874 328° Northwest  Level Estimated
Sat 01:20:00 AM 19.1191 53.0682 328° Northwest  Level Estimated
Sat 01:21:00 AM 19.1480 53.0490 328° Northwest  Level Estimated
Sat 01:22:00 AM 19.1769 53.0298 328° Northwest  Level Estimated
Sat 01:23:00 AM 19.2058 53.0105 328° Northwest  Level Estimated
Sat 01:24:00 AM 19.2347 52.9913 328° Northwest  Level Estimated
Sat 01:25:00 AM 19.2635 52.9720 328° Northwest  Level Estimated
Sat 01:26:00 AM 19.2924 52.9528 328° Northwest  Level Estimated
Sat 01:27:00 AM 19.3213 52.9335 328° Northwest  Level Estimated
Sat 01:28:00 AM 19.3502 52.9142 328° Northwest  Level Estimated
Sat 01:29:00 AM 19.3791 52.8950 328° Northwest  Level Estimated
Sat 01:30:00 AM 19.4080 52.8757 328° Northwest  Level Estimated
Sat 01:31:00 AM 19.4369 52.8564 328° Northwest  Level Estimated
Sat 01:32:00 AM 19.4657 52.8371 328° Northwest  Level Estimated
Sat 01:33:00 AM 19.4946 52.8178 328° Northwest  Level Estimated
Sat 01:34:00 AM 19.5235 52.7985 328° Northwest  Level Estimated
Sat 01:35:00 AM 19.5524 52.7792 328° Northwest  Level Estimated
Sat 01:36:00 AM 19.5812 52.7598 328° Northwest  Level Estimated
Sat 01:37:00 AM 19.6101 52.7405 328° Northwest  Level Estimated
Sat 01:38:00 AM 19.6390 52.7212 328° Northwest  Level Estimated
Sat 01:39:00 AM 19.6679 52.7018 328° Northwest  Level Estimated
Sat 01:40:00 AM 19.6967 52.6825 328° Northwest  Level Estimated
Sat 01:41:00 AM 19.7256 52.6631 328° Northwest  Level Estimated
Sat 01:42:00 AM 19.7544 52.6437 328° Northwest  Level Estimated
Sat 01:43:00 AM 19.7833 52.6244 328° Northwest  Level Estimated
Sat 01:44:00 AM 19.8121 52.6050 328° Northwest  Level Estimated
Sat 01:45:00 AM 19.8410 52.5856 328° Northwest  Level Estimated
Sat 01:46:00 AM 19.8699 52.5662 328° Northwest  Level Estimated
Sat 01:47:00 AM 19.8987 52.5468 328° Northwest  Level Estimated
Sat 01:48:00 AM 19.9275 52.5274 328° Northwest  Level Estimated
Sat 01:49:00 AM 19.9564 52.5080 328° Northwest  Level Estimated
Sat 01:50:00 AM 19.9852 52.4886 328° Northwest  Level Estimated
Sat 01:51:00 AM 20.0141 52.4691 328° Northwest  Level Estimated
Sat 01:52:00 AM 20.0429 52.4497 328° Northwest  Level Estimated
Sat 01:53:00 AM 20.0718 52.4302 328° Northwest  Level Estimated
Sat 01:54:00 AM 20.1006 52.4108 328° Northwest  Level Estimated
Sat 01:55:00 AM 20.1294 52.3913 328° Northwest  Level Estimated
Sat 01:56:00 AM 20.1582 52.3719 328° Northwest  Level Estimated
Sat 01:57:00 AM 20.1871 52.3524 328° Northwest  Level Estimated
Sat 01:58:00 AM 20.2159 52.3329 328° Northwest  Level Estimated
Sat 01:59:00 AM 20.2447 52.3134 328° Northwest  Level Estimated
Sat 02:00:00 AM 20.2735 52.2939 328° Northwest  Level Estimated
Sat 02:01:00 AM 20.3024 52.2744 328° Northwest  Level Estimated
Sat 02:02:00 AM 20.3312 52.2549 328° Northwest  Level Estimated
Sat 02:03:00 AM 20.3600 52.2354 328° Northwest  Level Estimated
Sat 02:04:00 AM 20.3888 52.2159 328° Northwest  Level Estimated
Sat 02:05:00 AM 20.4176 52.1964 328° Northwest  Level Estimated
Sat 02:06:00 AM 20.4464 52.1768 328° Northwest  Level Estimated
Sat 02:07:00 AM 20.4752 52.1573 328° Northwest  Level Estimated
Sat 02:08:00 AM 20.5040 52.1377 328° Northwest  Level Estimated
Sat 02:09:00 AM 20.5328 52.1182 328° Northwest  Level Estimated
Sat 02:10:00 AM 20.5616 52.0986 328° Northwest  Level Estimated
Sat 02:11:00 AM 20.5904 52.0790 328° Northwest  Level Estimated
Sat 02:12:00 AM 20.6192 52.0594 328° Northwest  Level Estimated
Sat 02:13:00 AM 20.6480 52.0398 328° Northwest  Level Estimated
Sat 02:14:00 AM 20.6768 52.0202 328° Northwest  Level Estimated
Sat 02:15:00 AM 20.7056 52.0006 328° Northwest  Level Estimated
Sat 02:16:00 AM 20.7344 51.9810 327° Northwest  Level Estimated
Sat 02:17:00 AM 20.7632 51.9614 327° Northwest  Level Estimated
Sat 02:18:00 AM 20.7919 51.9418 327° Northwest  Level Estimated
Sat 02:19:00 AM 20.8207 51.9222 327° Northwest  Level Estimated
Sat 02:20:00 AM 20.8495 51.9025 327° Northwest  Level Estimated
Sat 02:21:00 AM 20.8783 51.8829 327° Northwest  Level Estimated
Sat 02:22:00 AM 20.9070 51.8632 327° Northwest  Level Estimated
Sat 02:23:00 AM 20.9358 51.8436 327° Northwest  Level Estimated
Sat 02:24:00 AM 20.9646 51.8239 327° Northwest  Level Estimated
Sat 02:25:00 AM 20.9933 51.8042 327° Northwest  Level Estimated
Sat 02:26:00 AM 21.0221 51.7845 327° Northwest  Level Estimated
Sat 02:27:00 AM 21.0509 51.7648 327° Northwest  Level Estimated
Sat 02:28:00 AM 21.0796 51.7451 327° Northwest  Level Estimated
Sat 02:29:00 AM 21.1084 51.7254 327° Northwest  Level Estimated
Sat 02:30:00 AM 21.1371 51.7057 327° Northwest  Level Estimated
Sat 02:31:00 AM 21.1659 51.6860 327° Northwest  Level Estimated
Sat 02:32:00 AM 21.1946 51.6662 327° Northwest  Level Estimated
Sat 02:33:00 AM 21.2234 51.6465 327° Northwest  Level Estimated
Sat 02:34:00 AM 21.2521 51.6267 327° Northwest  Level Estimated
Sat 02:35:00 AM 21.2809 51.6070 327° Northwest  Level Estimated
Sat 02:36:00 AM 21.3096 51.5872 327° Northwest  Level Estimated
Sat 02:37:00 AM 21.3384 51.5675 327° Northwest  Level Estimated
Sat 02:38:00 AM 21.3671 51.5477 327° Northwest  Level Estimated
Sat 02:39:00 AM 21.3958 51.5279 327° Northwest  Level Estimated
Sat 02:40:00 AM 21.4246 51.5081 327° Northwest  Level Estimated
Sat 02:41:00 AM 21.4533 51.4883 327° Northwest  Level Estimated
Sat 02:42:00 AM 21.4820 51.4685 327° Northwest  Level Estimated
Sat 02:43:00 AM 21.5107 51.4487 327° Northwest  Level Estimated
Sat 02:44:00 AM 21.5395 51.4288 327° Northwest  Level Estimated
Sat 02:45:00 AM 21.5682 51.4090 327° Northwest  Level Estimated
Sat 02:46:00 AM 21.5969 51.3892 327° Northwest  Level Estimated
Sat 02:47:00 AM 21.6256 51.3693 327° Northwest  Level Estimated
Sat 02:48:00 AM 21.6543 51.3494 327° Northwest  Level Estimated
Sat 02:49:00 AM 21.6830 51.3296 327° Northwest  Level Estimated
Sat 02:50:00 AM 21.7117 51.3097 327° Northwest  Level Estimated
Sat 02:51:00 AM 21.7404 51.2898 327° Northwest  Level Estimated
Sat 02:52:00 AM 21.7691 51.2699 327° Northwest  Level Estimated
Sat 02:53:00 AM 21.7978 51.2500 327° Northwest  Level Estimated
Sat 02:54:00 AM 21.8265 51.2301 327° Northwest  Level Estimated

Login

Don't have an account? Register now (free) for customized features, flight alerts, and more!